Orange8 — JL6278 — position and weather

sailwx.info

Track history (hours):
 
Tides and Currents Weather Stations Pressure Air Temp Water Temp Dewpoint Dewpoint Depression Visibility Wind Speed Wind Dir Waves Ship Positions

Orange8

Last reported at 2017-Jun-23 10:00 UTC. Time now 2017-Jun-23 10:27 UTC.
Position N 34°37' E 135°26'.

Length 164 m; draft 5 m.

Type: Passenger vessel. MMSI: 431501603.

Date/timePositionNaut miles runAvg speedWind from/ knotsBaromVisibWave heightAir tempDewpointWater temp
2017-Jun-23 10:00N 34°37' E 135°26'0 0.0
2017-Jun-23 09:30N 34°37' E 135°26'0 0.0
2017-Jun-23 09:00N 34°37' E 135°26'0 0.0
2017-Jun-23 08:24N 34°37' E 135°26'0 0.0
2017-Jun-23 08:00N 34°37' E 135°26'0 0.0
2017-Jun-23 07:30N 34°37' E 135°26'0 0.0
2017-Jun-23 06:48N 34°37' E 135°26'0 0.0
2017-Jun-23 06:30N 34°37' E 135°26'0 0.0
2017-Jun-23 06:00N 34°37' E 135°26'0 0.0
2017-Jun-23 05:30N 34°37' E 135°26'0 0.0
2017-Jun-23 05:00N 34°37' E 135°26'0 0.0
2017-Jun-23 04:24N 34°37' E 135°26'0 0.0
2017-Jun-23 03:54N 34°37' E 135°26'0 0.0
2017-Jun-23 03:30N 34°37' E 135°26'0 0.0
2017-Jun-23 03:00N 34°37' E 135°26'0 0.0
2017-Jun-23 02:24N 34°37' E 135°26'0 0.0
2017-Jun-23 02:00N 34°37' E 135°26'0 0.0
2017-Jun-23 01:24N 34°37' E 135°26'0 0.0
2017-Jun-23 01:00N 34°37' E 135°26'0 0.0
2017-Jun-23 00:30N 34°37' E 135°26'0 0.0
2017-Jun-22 23:42N 34°37' E 135°26'0 0.0
2017-Jun-22 23:24N 34°37' E 135°26'0 0.0
2017-Jun-22 23:00N 34°37' E 135°26'0 0.0
2017-Jun-22 22:24N 34°37' E 135°26'0 0.0
2017-Jun-22 22:00N 34°37' E 135°26'0 0.0
2017-Jun-22 21:30N 34°37' E 135°26'0 0.1
2017-Jun-22 21:00N 34°37' E 135°26'5 9.4
2017-Jun-22 20:30N 34°37' E 135°20'918.8
2017-Jun-22 20:00N 34°34' E 135°09'918.8
2017-Jun-22 19:30N 34°37' E 134°58'1019.2
2017-Jun-22 18:59N 34°33' E 134°47'7 0.3
2017-Jun-21 14:41N 34°36' E 134°55'317.2
2017-Jun-21 14:29N 34°37' E 134°59'1717.2
2017-Jun-21 13:30N 34°37' E 135°19'510.9
2017-Jun-21 13:00N 34°37' E 135°26'0 0.0
2017-Jun-21 12:29N 34°37' E 135°26'0 0.0
2017-Jun-21 11:59N 34°37' E 135°26'0 0.0
2017-Jun-21 11:29N 34°37' E 135°26'0 0.0
2017-Jun-21 10:59N 34°37' E 135°26'0 0.0
2017-Jun-21 10:17N 34°37' E 135°26'0 0.0
2017-Jun-21 09:59N 34°37' E 135°26'0 0.0
2017-Jun-21 09:29N 34°37' E 135°26'0 0.0
2017-Jun-21 08:59N 34°37' E 135°26'0 0.0
2017-Jun-21 08:29N 34°37' E 135°26'0 0.1
2017-Jun-21 07:59N 34°37' E 135°26'0 0.0
2017-Jun-21 07:29N 34°37' E 135°26'0 0.0
2017-Jun-21 06:59N 34°37' E 135°26'0 0.0
2017-Jun-21 06:29N 34°37' E 135°26'0 0.0
2017-Jun-21 05:53N 34°37' E 135°26'0 0.0
2017-Jun-21 05:29N 34°37' E 135°26'0 0.0
2017-Jun-21 04:59N 34°37' E 135°26'0 0.0
2017-Jun-21 04:29N 34°37' E 135°26'0 0.0
2017-Jun-21 03:53N 34°37' E 135°26'0 0.0
2017-Jun-21 03:23N 34°37' E 135°26'0 0.0
2017-Jun-21 02:53N 34°37' E 135°26'0 0.0
2017-Jun-21 02:29N 34°37' E 135°26'0 0.0
2017-Jun-21 01:59N 34°37' E 135°26'0 0.0
2017-Jun-21 01:23N 34°37' E 135°26'0 0.0
2017-Jun-21 00:59N 34°37' E 135°26'0 0.0
2017-Jun-21 00:29N 34°37' E 135°26'0 0.0
2017-Jun-20 23:59N 34°37' E 135°26'0 0.1
2017-Jun-20 23:29N 34°37' E 135°26'0 0.0
2017-Jun-20 22:47N 34°37' E 135°26'0 0.0
2017-Jun-20 22:23N 34°37' E 135°26'0 0.0
2017-Jun-20 21:59N 34°37' E 135°26'0 0.0
2017-Jun-20 21:29N 34°37' E 135°26'1 1.5
2017-Jun-20 21:01N 34°37' E 135°25'816.4
2017-Jun-20 20:30N 34°35' E 135°15'918.4
2017-Jun-20 20:00N 34°35' E 135°04'713.9
2017-Jun-20 19:30N 34°36' E 134°56'3 0.1
2017-Jun-19 14:55N 34°35' E 134°52'1415.4
2017-Jun-19 14:01N 34°36' E 135°10'917.9
2017-Jun-19 13:31N 34°37' E 135°20'5 9.1
2017-Jun-19 13:00N 34°37' E 135°26'0 0.0
2017-Jun-19 12:29N 34°37' E 135°26'0 0.0
2017-Jun-19 11:59N 34°37' E 135°26'0 0.0
2017-Jun-19 11:29N 34°37' E 135°26'0 0.0
2017-Jun-19 10:59N 34°37' E 135°26'0 0.0
2017-Jun-19 10:23N 34°37' E 135°26'0 0.0
2017-Jun-19 09:59N 34°37' E 135°26'0 0.0
2017-Jun-19 09:29N 34°37' E 135°26'0 0.0
2017-Jun-19 08:35N 34°37' E 135°26'0 0.1
2017-Jun-19 08:29N 34°37' E 135°26'0 0.0
2017-Jun-19 07:47N 34°37' E 135°26'0 0.0
2017-Jun-19 07:29N 34°37' E 135°26'0 0.0
2017-Jun-19 06:59N 34°37' E 135°26'0 0.0
2017-Jun-19 06:29N 34°37' E 135°26'0 0.0
2017-Jun-19 05:59N 34°37' E 135°26'0 0.0
2017-Jun-19 05:29N 34°37' E 135°26'0 0.0
2017-Jun-19 04:41N 34°37' E 135°26'0 0.0
2017-Jun-19 04:29N 34°37' E 135°26'0 0.0
2017-Jun-19 03:59N 34°37' E 135°26'0 0.0
2017-Jun-19 03:29N 34°37' E 135°26'0 0.0
2017-Jun-19 02:59N 34°37' E 135°26'0 0.0
2017-Jun-19 02:29N 34°37' E 135°26'0 0.0
2017-Jun-19 01:53N 34°37' E 135°26'0 0.0
2017-Jun-19 01:29N 34°37' E 135°26'0 0.0
2017-Jun-19 00:59N 34°37' E 135°26'0 0.0
2017-Jun-19 00:29N 34°37' E 135°26'0 0.0
2017-Jun-18 23:53N 34°37' E 135°26'0 0.1
2017-Jun-18 23:29N 34°37' E 135°26'0 0.0
2017-Jun-18 22:59N 34°37' E 135°26'0 0.0
2017-Jun-18 22:29N 34°37' E 135°26'0 0.0
2017-Jun-18 21:47N 34°37' E 135°26'0 0.0
2017-Jun-18 21:29N 34°37' E 135°26'0 0.5
2017-Jun-18 21:00N 34°37' E 135°26'612.4
2017-Jun-18 20:30N 34°35' E 135°19'1019.9
2017-Jun-18 20:00N 34°34' E 135°07'917.3
2017-Jun-18 19:30N 34°36' E 134°56'5 0.2
2017-Jun-17 14:57N 34°35' E 134°51'818.6
2017-Jun-17 14:30N 34°38' E 134°60'1717.0
2017-Jun-17 13:30N 34°37' E 135°20'5 9.0
2017-Jun-17 13:00N 34°37' E 135°26'0 0.0
2017-Jun-17 12:26N 34°37' E 135°26'0 0.0
2017-Jun-17 11:56N 34°37' E 135°26'0 0.0
2017-Jun-17 11:20N 34°37' E 135°26'0 0.0
2017-Jun-17 10:44N 34°37' E 135°26'0 0.0
2017-Jun-17 10:26N 34°37' E 135°26'0 0.0
2017-Jun-17 09:56N 34°37' E 135°26'0 0.0
2017-Jun-17 09:26N 34°37' E 135°26'0 0.0
2017-Jun-17 08:56N 34°37' E 135°26'0 0.0
2017-Jun-17 08:14N 34°37' E 135°26'0 0.0
2017-Jun-17 07:50N 34°37' E 135°26'0 0.0
2017-Jun-17 07:26N 34°37' E 135°26'0 0.0
2017-Jun-17 06:56N 34°37' E 135°26'0 0.0
2017-Jun-17 06:26N 34°37' E 135°26'0 0.0
2017-Jun-17 05:56N 34°37' E 135°26'0 0.0
2017-Jun-17 05:20N 34°37' E 135°26'0 0.0
2017-Jun-17 04:56N 34°37' E 135°26'0 0.0
2017-Jun-17 04:14N 34°37' E 135°26'0 0.0
2017-Jun-17 03:56N 34°37' E 135°26'0 0.0
2017-Jun-17 03:08N 34°37' E 135°26'0 0.0
2017-Jun-17 02:08N 34°37' E 135°26'0 0.0
2017-Jun-17 01:50N 34°37' E 135°26'0 0.0
2017-Jun-17 01:26N 34°37' E 135°26'0 0.0
2017-Jun-17 00:50N 34°37' E 135°26'0 0.0
2017-Jun-17 00:20N 34°37' E 135°26'0 0.0
2017-Jun-16 23:44N 34°37' E 135°26'0 0.0
2017-Jun-16 23:26N 34°37' E 135°26'0 0.0
2017-Jun-16 22:56N 34°37' E 135°26'0 0.0
2017-Jun-16 22:26N 34°37' E 135°26'0 0.0
2017-Jun-16 21:56N 34°37' E 135°26'0 0.0
2017-Jun-16 21:26N 34°37' E 135°26'0 0.4
2017-Jun-16 21:00N 34°37' E 135°26'612.7
2017-Jun-16 20:30N 34°36' E 135°18'1019.0
2017-Jun-16 20:00N 34°34' E 135°07'1019.0
2017-Jun-16 19:30N 34°36' E 134°55'9 0.3
2017-Jun-15 15:06N 34°33' E 134°45'419.6
2017-Jun-15 14:55N 34°34' E 134°49'920.3
2017-Jun-15 14:29N 34°37' E 134°58'1817.7
2017-Jun-15 13:30N 34°37' E 135°20'510.1
2017-Jun-15 13:00N 34°37' E 135°26'0 0.0
2017-Jun-15 12:28N 34°37' E 135°26'0 0.0
2017-Jun-15 11:58N 34°37' E 135°26'0 0.0
2017-Jun-15 11:28N 34°37' E 135°26'0 0.0
2017-Jun-15 10:58N 34°37' E 135°26'0 0.0
2017-Jun-15 10:22N 34°37' E 135°26'0 0.0
2017-Jun-15 09:58N 34°37' E 135°26'0 0.0
2017-Jun-15 09:28N 34°37' E 135°26'0 0.0
2017-Jun-15 08:58N 34°37' E 135°26'0 0.0
2017-Jun-15 08:28N 34°37' E 135°26'0 0.1
2017-Jun-15 07:58N 34°37' E 135°26'0 0.0
2017-Jun-15 07:28N 34°37' E 135°26'0 0.0
2017-Jun-15 06:58N 34°37' E 135°26'0 0.0
2017-Jun-15 06:28N 34°37' E 135°26'0 0.0
2017-Jun-15 05:52N 34°37' E 135°26'0 0.0
2017-Jun-15 05:28N 34°37' E 135°26'0 0.0
2017-Jun-15 04:52N 34°37' E 135°26'0 0.0
2017-Jun-15 04:22N 34°37' E 135°26'0 0.0
2017-Jun-15 03:58N 34°37' E 135°26'0 0.0
2017-Jun-15 03:28N 34°37' E 135°26'0 0.0
2017-Jun-15 02:58N 34°37' E 135°26'0 0.0
2017-Jun-15 02:22N 34°37' E 135°26'0 0.0
2017-Jun-15 01:52N 34°37' E 135°26'0 0.0
2017-Jun-15 01:28N 34°37' E 135°26'0 0.0
2017-Jun-15 00:58N 34°37' E 135°26'0 0.0
2017-Jun-15 00:28N 34°37' E 135°26'0 0.0
2017-Jun-14 23:34N 34°37' E 135°26'0 0.1
2017-Jun-14 23:10N 34°37' E 135°26'0 0.0
2017-Jun-14 22:52N 34°37' E 135°26'0 0.0
2017-Jun-14 21:07N 34°37' E 135°26'0 0.4
2017-Jun-14 21:00N 34°37' E 135°26'511.0
2017-Jun-14 20:30N 34°35' E 135°19'1019.4
2017-Jun-14 20:01N 34°34' E 135°08'918.5
2017-Jun-14 19:30N 34°36' E 134°57'7 0.2
2017-Jun-13 14:55N 34°34' E 134°49'1718.5
2017-Jun-13 14:00N 34°36' E 135°09'917.7
2017-Jun-13 13:30N 34°37' E 135°20'  
Track history (hours):
 
Tides and Currents Weather Stations Pressure Air Temp Water Temp Dewpoint Dewpoint Depression Visibility Wind Speed Wind Dir Waves Ship Positions

Orange8

Last reported at 2017-Jun-23 10:00 UTC. Time now 2017-Jun-23 10:27 UTC.
Position N 34°37' E 135°26'.

Length 164 m; draft 5 m.

Type: Passenger vessel. MMSI: 431501603.

Date/timePositionNaut miles runAvg speedWind from/ knotsBaromVisibWave heightAir tempDewpointWater temp
2017-Jun-23 10:00N 34°37' E 135°26'0 0.0
2017-Jun-23 09:30N 34°37' E 135°26'0 0.0
2017-Jun-23 09:00N 34°37' E 135°26'0 0.0
2017-Jun-23 08:24N 34°37' E 135°26'0 0.0
2017-Jun-23 08:00N 34°37' E 135°26'0 0.0
2017-Jun-23 07:30N 34°37' E 135°26'0 0.0
2017-Jun-23 06:48N 34°37' E 135°26'0 0.0
2017-Jun-23 06:30N 34°37' E 135°26'0 0.0
2017-Jun-23 06:00N 34°37' E 135°26'0 0.0
2017-Jun-23 05:30N 34°37' E 135°26'0 0.0
2017-Jun-23 05:00N 34°37' E 135°26'0 0.0
2017-Jun-23 04:24N 34°37' E 135°26'0 0.0
2017-Jun-23 03:54N 34°37' E 135°26'0 0.0
2017-Jun-23 03:30N 34°37' E 135°26'0 0.0
2017-Jun-23 03:00N 34°37' E 135°26'0 0.0
2017-Jun-23 02:24N 34°37' E 135°26'0 0.0
2017-Jun-23 02:00N 34°37' E 135°26'0 0.0
2017-Jun-23 01:24N 34°37' E 135°26'0 0.0
2017-Jun-23 01:00N 34°37' E 135°26'0 0.0
2017-Jun-23 00:30N 34°37' E 135°26'0 0.0
2017-Jun-22 23:42N 34°37' E 135°26'0 0.0
2017-Jun-22 23:24N 34°37' E 135°26'0 0.0
2017-Jun-22 23:00N 34°37' E 135°26'0 0.0
2017-Jun-22 22:24N 34°37' E 135°26'0 0.0
2017-Jun-22 22:00N 34°37' E 135°26'0 0.0
2017-Jun-22 21:30N 34°37' E 135°26'0 0.1
2017-Jun-22 21:00N 34°37' E 135°26'5 9.4
2017-Jun-22 20:30N 34°37' E 135°20'918.8
2017-Jun-22 20:00N 34°34' E 135°09'918.8
2017-Jun-22 19:30N 34°37' E 134°58'1019.2
2017-Jun-22 18:59N 34°33' E 134°47'7 0.3
2017-Jun-21 14:41N 34°36' E 134°55'317.2
2017-Jun-21 14:29N 34°37' E 134°59'1717.2
2017-Jun-21 13:30N 34°37' E 135°19'510.9
2017-Jun-21 13:00N 34°37' E 135°26'0 0.0
2017-Jun-21 12:29N 34°37' E 135°26'0 0.0
2017-Jun-21 11:59N 34°37' E 135°26'0 0.0
2017-Jun-21 11:29N 34°37' E 135°26'0 0.0
2017-Jun-21 10:59N 34°37' E 135°26'0 0.0
2017-Jun-21 10:17N 34°37' E 135°26'0 0.0
2017-Jun-21 09:59N 34°37' E 135°26'0 0.0
2017-Jun-21 09:29N 34°37' E 135°26'0 0.0
2017-Jun-21 08:59N 34°37' E 135°26'0 0.0
2017-Jun-21 08:29N 34°37' E 135°26'0 0.1
2017-Jun-21 07:59N 34°37' E 135°26'0 0.0
2017-Jun-21 07:29N 34°37' E 135°26'0 0.0
2017-Jun-21 06:59N 34°37' E 135°26'0 0.0
2017-Jun-21 06:29N 34°37' E 135°26'0 0.0
2017-Jun-21 05:53N 34°37' E 135°26'0 0.0
2017-Jun-21 05:29N 34°37' E 135°26'0 0.0
2017-Jun-21 04:59N 34°37' E 135°26'0 0.0
2017-Jun-21 04:29N 34°37' E 135°26'0 0.0
2017-Jun-21 03:53N 34°37' E 135°26'0 0.0
2017-Jun-21 03:23N 34°37' E 135°26'0 0.0
2017-Jun-21 02:53N 34°37' E 135°26'0 0.0
2017-Jun-21 02:29N 34°37' E 135°26'0 0.0
2017-Jun-21 01:59N 34°37' E 135°26'0 0.0
2017-Jun-21 01:23N 34°37' E 135°26'0 0.0
2017-Jun-21 00:59N 34°37' E 135°26'0 0.0
2017-Jun-21 00:29N 34°37' E 135°26'0 0.0
2017-Jun-20 23:59N 34°37' E 135°26'0 0.1
2017-Jun-20 23:29N 34°37' E 135°26'0 0.0
2017-Jun-20 22:47N 34°37' E 135°26'0 0.0
2017-Jun-20 22:23N 34°37' E 135°26'0 0.0
2017-Jun-20 21:59N 34°37' E 135°26'0 0.0
2017-Jun-20 21:29N 34°37' E 135°26'1 1.5
2017-Jun-20 21:01N 34°37' E 135°25'816.4
2017-Jun-20 20:30N 34°35' E 135°15'918.4
2017-Jun-20 20:00N 34°35' E 135°04'713.9
2017-Jun-20 19:30N 34°36' E 134°56'3 0.1
2017-Jun-19 14:55N 34°35' E 134°52'1415.4
2017-Jun-19 14:01N 34°36' E 135°10'917.9
2017-Jun-19 13:31N 34°37' E 135°20'5 9.1
2017-Jun-19 13:00N 34°37' E 135°26'0 0.0
2017-Jun-19 12:29N 34°37' E 135°26'0 0.0
2017-Jun-19 11:59N 34°37' E 135°26'0 0.0
2017-Jun-19 11:29N 34°37' E 135°26'0 0.0
2017-Jun-19 10:59N 34°37' E 135°26'0 0.0
2017-Jun-19 10:23N 34°37' E 135°26'0 0.0
2017-Jun-19 09:59N 34°37' E 135°26'0 0.0
2017-Jun-19 09:29N 34°37' E 135°26'0 0.0
2017-Jun-19 08:35N 34°37' E 135°26'0 0.1
2017-Jun-19 08:29N 34°37' E 135°26'0 0.0
2017-Jun-19 07:47N 34°37' E 135°26'0 0.0
2017-Jun-19 07:29N 34°37' E 135°26'0 0.0
2017-Jun-19 06:59N 34°37' E 135°26'0 0.0
2017-Jun-19 06:29N 34°37' E 135°26'0 0.0
2017-Jun-19 05:59N 34°37' E 135°26'0 0.0
2017-Jun-19 05:29N 34°37' E 135°26'0 0.0
2017-Jun-19 04:41N 34°37' E 135°26'0 0.0
2017-Jun-19 04:29N 34°37' E 135°26'0 0.0
2017-Jun-19 03:59N 34°37' E 135°26'0 0.0
2017-Jun-19 03:29N 34°37' E 135°26'0 0.0
2017-Jun-19 02:59N 34°37' E 135°26'0 0.0
2017-Jun-19 02:29N 34°37' E 135°26'0 0.0
2017-Jun-19 01:53N 34°37' E 135°26'0 0.0
2017-Jun-19 01:29N 34°37' E 135°26'0 0.0
2017-Jun-19 00:59N 34°37' E 135°26'0 0.0
2017-Jun-19 00:29N 34°37' E 135°26'0 0.0
2017-Jun-18 23:53N 34°37' E 135°26'0 0.1
2017-Jun-18 23:29N 34°37' E 135°26'0 0.0
2017-Jun-18 22:59N 34°37' E 135°26'0 0.0
2017-Jun-18 22:29N 34°37' E 135°26'0 0.0
2017-Jun-18 21:47N 34°37' E 135°26'0 0.0
2017-Jun-18 21:29N 34°37' E 135°26'0 0.5
2017-Jun-18 21:00N 34°37' E 135°26'612.4
2017-Jun-18 20:30N 34°35' E 135°19'1019.9
2017-Jun-18 20:00N 34°34' E 135°07'917.3
2017-Jun-18 19:30N 34°36' E 134°56'5 0.2
2017-Jun-17 14:57N 34°35' E 134°51'818.6
2017-Jun-17 14:30N 34°38' E 134°60'1717.0
2017-Jun-17 13:30N 34°37' E 135°20'5 9.0
2017-Jun-17 13:00N 34°37' E 135°26'0 0.0
2017-Jun-17 12:26N 34°37' E 135°26'0 0.0
2017-Jun-17 11:56N 34°37' E 135°26'0 0.0
2017-Jun-17 11:20N 34°37' E 135°26'0 0.0
2017-Jun-17 10:44N 34°37' E 135°26'0 0.0
2017-Jun-17 10:26N 34°37' E 135°26'0 0.0
2017-Jun-17 09:56N 34°37' E 135°26'0 0.0
2017-Jun-17 09:26N 34°37' E 135°26'0 0.0
2017-Jun-17 08:56N 34°37' E 135°26'0 0.0
2017-Jun-17 08:14N 34°37' E 135°26'0 0.0
2017-Jun-17 07:50N 34°37' E 135°26'0 0.0
2017-Jun-17 07:26N 34°37' E 135°26'0 0.0
2017-Jun-17 06:56N 34°37' E 135°26'0 0.0
2017-Jun-17 06:26N 34°37' E 135°26'0 0.0
2017-Jun-17 05:56N 34°37' E 135°26'0 0.0
2017-Jun-17 05:20N 34°37' E 135°26'0 0.0
2017-Jun-17 04:56N 34°37' E 135°26'0 0.0
2017-Jun-17 04:14N 34°37' E 135°26'0 0.0
2017-Jun-17 03:56N 34°37' E 135°26'0 0.0
2017-Jun-17 03:08N 34°37' E 135°26'0 0.0
2017-Jun-17 02:08N 34°37' E 135°26'0 0.0
2017-Jun-17 01:50N 34°37' E 135°26'0 0.0
2017-Jun-17 01:26N 34°37' E 135°26'0 0.0
2017-Jun-17 00:50N 34°37' E 135°26'0 0.0
2017-Jun-17 00:20N 34°37' E 135°26'0 0.0
2017-Jun-16 23:44N 34°37' E 135°26'0 0.0
2017-Jun-16 23:26N 34°37' E 135°26'0 0.0
2017-Jun-16 22:56N 34°37' E 135°26'0 0.0
2017-Jun-16 22:26N 34°37' E 135°26'0 0.0
2017-Jun-16 21:56N 34°37' E 135°26'0 0.0
2017-Jun-16 21:26N 34°37' E 135°26'0 0.4
2017-Jun-16 21:00N 34°37' E 135°26'612.7
2017-Jun-16 20:30N 34°36' E 135°18'1019.0
2017-Jun-16 20:00N 34°34' E 135°07'1019.0
2017-Jun-16 19:30N 34°36' E 134°55'9 0.3
2017-Jun-15 15:06N 34°33' E 134°45'419.6
2017-Jun-15 14:55N 34°34' E 134°49'920.3
2017-Jun-15 14:29N 34°37' E 134°58'1817.7
2017-Jun-15 13:30N 34°37' E 135°20'510.1
2017-Jun-15 13:00N 34°37' E 135°26'0 0.0
2017-Jun-15 12:28N 34°37' E 135°26'0 0.0
2017-Jun-15 11:58N 34°37' E 135°26'0 0.0
2017-Jun-15 11:28N 34°37' E 135°26'0 0.0
2017-Jun-15 10:58N 34°37' E 135°26'0 0.0
2017-Jun-15 10:22N 34°37' E 135°26'0 0.0
2017-Jun-15 09:58N 34°37' E 135°26'0 0.0
2017-Jun-15 09:28N 34°37' E 135°26'0 0.0
2017-Jun-15 08:58N 34°37' E 135°26'0 0.0
2017-Jun-15 08:28N 34°37' E 135°26'0 0.1
2017-Jun-15 07:58N 34°37' E 135°26'0 0.0
2017-Jun-15 07:28N 34°37' E 135°26'0 0.0
2017-Jun-15 06:58N 34°37' E 135°26'0 0.0
2017-Jun-15 06:28N 34°37' E 135°26'0 0.0
2017-Jun-15 05:52N 34°37' E 135°26'0 0.0
2017-Jun-15 05:28N 34°37' E 135°26'0 0.0
2017-Jun-15 04:52N 34°37' E 135°26'0 0.0
2017-Jun-15 04:22N 34°37' E 135°26'0 0.0
2017-Jun-15 03:58N 34°37' E 135°26'0 0.0
2017-Jun-15 03:28N 34°37' E 135°26'0 0.0
2017-Jun-15 02:58N 34°37' E 135°26'0 0.0
2017-Jun-15 02:22N 34°37' E 135°26'0 0.0
2017-Jun-15 01:52N 34°37' E 135°26'0 0.0
2017-Jun-15 01:28N 34°37' E 135°26'0 0.0
2017-Jun-15 00:58N 34°37' E 135°26'0 0.0
2017-Jun-15 00:28N 34°37' E 135°26'0 0.0
2017-Jun-14 23:34N 34°37' E 135°26'0 0.1
2017-Jun-14 23:10N 34°37' E 135°26'0 0.0
2017-Jun-14 22:52N 34°37' E 135°26'0 0.0
2017-Jun-14 21:07N 34°37' E 135°26'0 0.4
2017-Jun-14 21:00N 34°37' E 135°26'511.0
2017-Jun-14 20:30N 34°35' E 135°19'1019.4
2017-Jun-14 20:01N 34°34' E 135°08'918.5
2017-Jun-14 19:30N 34°36' E 134°57'7 0.2
2017-Jun-13 14:55N 34°34' E 134°49'1718.5
2017-Jun-13 14:00N 34°36' E 135°09'917.7
2017-Jun-13 13:30N 34°37' E 135°20'  

Dump ship's entire track history